sensor_id;sensor_type;location;lat;lon;timestamp;temperature;humidity
10538;DHT22;5317;49.048;8.468;2022-07-03T00:00:47;23.40;56.60
10538;DHT22;5317;49.048;8.468;2022-07-03T00:03:14;23.40;56.80
10538;DHT22;5317;49.048;8.468;2022-07-03T00:05:41;23.30;57.20
10538;DHT22;5317;49.048;8.468;2022-07-03T00:08:08;23.30;57.70
10538;DHT22;5317;49.048;8.468;2022-07-03T00:10:35;23.20;58.60
10538;DHT22;5317;49.048;8.468;2022-07-03T00:13:03;23.10;58.20
10538;DHT22;5317;49.048;8.468;2022-07-03T00:15:31;23.10;58.40
10538;DHT22;5317;49.048;8.468;2022-07-03T00:17:58;23.00;58.50
10538;DHT22;5317;49.048;8.468;2022-07-03T00:20:30;22.90;58.90
10538;DHT22;5317;49.048;8.468;2022-07-03T00:23:07;22.90;59.30
10538;DHT22;5317;49.048;8.468;2022-07-03T00:25:39;22.80;59.20
10538;DHT22;5317;49.048;8.468;2022-07-03T00:28:08;22.80;59.70
10538;DHT22;5317;49.048;8.468;2022-07-03T00:30:37;22.70;59.60
10538;DHT22;5317;49.048;8.468;2022-07-03T00:33:05;22.50;59.70
10538;DHT22;5317;49.048;8.468;2022-07-03T00:35:35;22.50;59.90
10538;DHT22;5317;49.048;8.468;2022-07-03T00:38:05;22.40;61.10
10538;DHT22;5317;49.048;8.468;2022-07-03T00:40:32;22.30;60.60
10538;DHT22;5317;49.048;8.468;2022-07-03T00:43:00;22.20;61.30
10538;DHT22;5317;49.048;8.468;2022-07-03T00:45:33;22.00;61.80
10538;DHT22;5317;49.048;8.468;2022-07-03T00:48:05;21.90;62.40
10538;DHT22;5317;49.048;8.468;2022-07-03T00:50:36;21.90;62.40
10538;DHT22;5317;49.048;8.468;2022-07-03T00:53:03;21.80;62.70
10538;DHT22;5317;49.048;8.468;2022-07-03T00:55:30;21.70;63.80
10538;DHT22;5317;49.048;8.468;2022-07-03T00:58:02;21.70;63.20
10538;DHT22;5317;49.048;8.468;2022-07-03T01:00:29;21.70;63.10
10538;DHT22;5317;49.048;8.468;2022-07-03T01:03:05;21.80;63.30
10538;DHT22;5317;49.048;8.468;2022-07-03T01:05:36;21.80;63.50
10538;DHT22;5317;49.048;8.468;2022-07-03T01:08:11;21.80;63.50
10538;DHT22;5317;49.048;8.468;2022-07-03T01:10:52;21.80;63.90
10538;DHT22;5317;49.048;8.468;2022-07-03T01:13:30;21.80;63.60
10538;DHT22;5317;49.048;8.468;2022-07-03T01:16:06;21.80;64.00
10538;DHT22;5317;49.048;8.468;2022-07-03T01:18:45;21.70;63.90
10538;DHT22;5317;49.048;8.468;2022-07-03T01:21:20;21.70;63.90
10538;DHT22;5317;49.048;8.468;2022-07-03T01:24:18;21.70;64.20
10538;DHT22;5317;49.048;8.468;2022-07-03T01:27:10;21.60;64.90
10538;DHT22;5317;49.048;8.468;2022-07-03T01:29:51;21.60;64.40
10538;DHT22;5317;49.048;8.468;2022-07-03T01:32:32;21.60;64.50
10538;DHT22;5317;49.048;8.468;2022-07-03T01:35:07;21.60;64.80
10538;DHT22;5317;49.048;8.468;2022-07-03T01:37:35;21.50;64.50
10538;DHT22;5317;49.048;8.468;2022-07-03T01:40:07;21.50;64.70
10538;DHT22;5317;49.048;8.468;2022-07-03T01:42:36;21.40;64.70
10538;DHT22;5317;49.048;8.468;2022-07-03T01:45:09;21.40;65.20
10538;DHT22;5317;49.048;8.468;2022-07-03T01:47:40;21.30;65.40
10538;DHT22;5317;49.048;8.468;2022-07-03T01:50:12;21.30;65.70
10538;DHT22;5317;49.048;8.468;2022-07-03T01:52:42;21.30;65.70
10538;DHT22;5317;49.048;8.468;2022-07-03T01:55:13;21.20;65.90
10538;DHT22;5317;49.048;8.468;2022-07-03T01:57:44;21.10;66.40
10538;DHT22;5317;49.048;8.468;2022-07-03T02:00:14;21.10;66.40
10538;DHT22;5317;49.048;8.468;2022-07-03T02:02:50;21.10;66.50
10538;DHT22;5317;49.048;8.468;2022-07-03T02:05:29;21.10;66.80
10538;DHT22;5317;49.048;8.468;2022-07-03T02:08:06;20.90;67.30
10538;DHT22;5317;49.048;8.468;2022-07-03T02:10:40;20.80;67.70
10538;DHT22;5317;49.048;8.468;2022-07-03T02:13:17;20.70;67.90
10538;DHT22;5317;49.048;8.468;2022-07-03T02:15:50;20.70;68.20
10538;DHT22;5317;49.048;8.468;2022-07-03T02:18:26;20.70;67.80
10538;DHT22;5317;49.048;8.468;2022-07-03T02:21:03;20.80;67.90
10538;DHT22;5317;49.048;8.468;2022-07-03T02:23:41;20.80;67.70
10538;DHT22;5317;49.048;8.468;2022-07-03T02:26:24;20.80;67.40
10538;DHT22;5317;49.048;8.468;2022-07-03T02:29:01;20.80;67.40
10538;DHT22;5317;49.048;8.468;2022-07-03T02:31:34;20.80;67.60
10538;DHT22;5317;49.048;8.468;2022-07-03T02:34:07;20.70;68.40
10538;DHT22;5317;49.048;8.468;2022-07-03T02:36:35;20.70;67.60
10538;DHT22;5317;49.048;8.468;2022-07-03T02:39:08;20.70;67.80
10538;DHT22;5317;49.048;8.468;2022-07-03T02:41:46;20.60;68.00
10538;DHT22;5317;49.048;8.468;2022-07-03T02:44:25;20.70;68.00
10538;DHT22;5317;49.048;8.468;2022-07-03T02:47:02;20.70;68.00
10538;DHT22;5317;49.048;8.468;2022-07-03T02:49:56;20.70;67.80
10538;DHT22;5317;49.048;8.468;2022-07-03T02:52:34;20.80;68.20
10538;DHT22;5317;49.048;8.468;2022-07-03T02:55:18;20.70;67.70
10538;DHT22;5317;49.048;8.468;2022-07-03T02:58:20;20.80;67.70
10538;DHT22;5317;49.048;8.468;2022-07-03T03:01:01;20.70;67.70
10538;DHT22;5317;49.048;8.468;2022-07-03T03:03:35;20.70;67.70
10538;DHT22;5317;49.048;8.468;2022-07-03T03:06:13;20.70;67.60
10538;DHT22;5317;49.048;8.468;2022-07-03T03:08:43;20.60;67.70
10538;DHT22;5317;49.048;8.468;2022-07-03T03:11:20;20.60;67.50
10538;DHT22;5317;49.048;8.468;2022-07-03T03:13:53;20.70;67.60
10538;DHT22;5317;49.048;8.468;2022-07-03T03:16:23;20.70;67.50
10538;DHT22;5317;49.048;8.468;2022-07-03T03:18:52;20.70;67.30
10538;DHT22;5317;49.048;8.468;2022-07-03T03:21:20;20.70;67.10
10538;DHT22;5317;49.048;8.468;2022-07-03T03:23:52;20.80;67.20
10538;DHT22;5317;49.048;8.468;2022-07-03T03:26:23;20.80;66.80
10538;DHT22;5317;49.048;8.468;2022-07-03T03:28:53;20.90;67.10
10538;DHT22;5317;49.048;8.468;2022-07-03T03:31:22;20.90;67.00
10538;DHT22;5317;49.048;8.468;2022-07-03T03:33:51;20.80;66.90
10538;DHT22;5317;49.048;8.468;2022-07-03T03:36:20;20.80;66.90
10538;DHT22;5317;49.048;8.468;2022-07-03T03:38:51;20.80;67.00
10538;DHT22;5317;49.048;8.468;2022-07-03T03:41:18;20.80;67.10
10538;DHT22;5317;49.048;8.468;2022-07-03T03:43:45;20.70;67.10
10538;DHT22;5317;49.048;8.468;2022-07-03T03:46:13;20.70;67.60
10538;DHT22;5317;49.048;8.468;2022-07-03T03:48:42;20.70;67.60
10538;DHT22;5317;49.048;8.468;2022-07-03T03:51:11;20.70;67.80
10538;DHT22;5317;49.048;8.468;2022-07-03T03:53:39;20.60;67.90
10538;DHT22;5317;49.048;8.468;2022-07-03T03:56:11;20.60;67.90
10538;DHT22;5317;49.048;8.468;2022-07-03T03:58:40;20.60;68.10
10538;DHT22;5317;49.048;8.468;2022-07-03T04:01:10;20.50;68.00
10538;DHT22;5317;49.048;8.468;2022-07-03T04:03:39;20.50;68.10
10538;DHT22;5317;49.048;8.468;2022-07-03T04:06:08;20.60;68.30
10538;DHT22;5317;49.048;8.468;2022-07-03T04:08:35;20.50;68.40
10538;DHT22;5317;49.048;8.468;2022-07-03T04:11:03;20.50;68.30
10538;DHT22;5317;49.048;8.468;2022-07-03T04:13:30;20.60;68.30
10538;DHT22;5317;49.048;8.468;2022-07-03T04:15:57;20.60;68.20
10538;DHT22;5317;49.048;8.468;2022-07-03T04:18:24;20.70;69.00
10538;DHT22;5317;49.048;8.468;2022-07-03T04:20:52;20.70;68.20
10538;DHT22;5317;49.048;8.468;2022-07-03T04:23:20;20.70;68.30
10538;DHT22;5317;49.048;8.468;2022-07-03T04:25:48;20.70;68.40
10538;DHT22;5317;49.048;8.468;2022-07-03T04:28:15;20.80;68.30
10538;DHT22;5317;49.048;8.468;2022-07-03T04:30:43;20.80;68.30
10538;DHT22;5317;49.048;8.468;2022-07-03T04:33:10;20.90;68.30
10538;DHT22;5317;49.048;8.468;2022-07-03T04:35:37;21.00;68.20
10538;DHT22;5317;49.048;8.468;2022-07-03T04:38:04;21.00;67.90
10538;DHT22;5317;49.048;8.468;2022-07-03T04:40:33;21.10;67.80
10538;DHT22;5317;49.048;8.468;2022-07-03T04:43:00;21.20;67.70
10538;DHT22;5317;49.048;8.468;2022-07-03T04:45:27;21.20;67.20
10538;DHT22;5317;49.048;8.468;2022-07-03T04:47:54;21.30;67.60
10538;DHT22;5317;49.048;8.468;2022-07-03T04:50:22;21.40;67.50
10538;DHT22;5317;49.048;8.468;2022-07-03T04:52:49;21.40;67.30
10538;DHT22;5317;49.048;8.468;2022-07-03T04:55:16;21.50;67.30
10538;DHT22;5317;49.048;8.468;2022-07-03T04:57:45;21.50;67.30
10538;DHT22;5317;49.048;8.468;2022-07-03T05:00:12;21.60;67.40
10538;DHT22;5317;49.048;8.468;2022-07-03T05:02:40;21.70;67.40
10538;DHT22;5317;49.048;8.468;2022-07-03T05:05:08;21.70;67.20
10538;DHT22;5317;49.048;8.468;2022-07-03T05:07:35;21.80;67.40
10538;DHT22;5317;49.048;8.468;2022-07-03T05:10:03;21.90;67.80
10538;DHT22;5317;49.048;8.468;2022-07-03T05:12:30;21.90;68.30
10538;DHT22;5317;49.048;8.468;2022-07-03T05:14:59;22.00;68.20
10538;DHT22;5317;49.048;8.468;2022-07-03T05:17:26;22.10;68.10
10538;DHT22;5317;49.048;8.468;2022-07-03T05:19:53;22.10;67.50
10538;DHT22;5317;49.048;8.468;2022-07-03T05:22:35;22.20;67.20
10538;DHT22;5317;49.048;8.468;2022-07-03T05:25:02;22.20;67.00
10538;DHT22;5317;49.048;8.468;2022-07-03T05:27:30;22.30;66.90
10538;DHT22;5317;49.048;8.468;2022-07-03T05:29:58;22.30;66.70
10538;DHT22;5317;49.048;8.468;2022-07-03T05:32:25;22.40;66.90
10538;DHT22;5317;49.048;8.468;2022-07-03T05:34:53;22.50;66.70
10538;DHT22;5317;49.048;8.468;2022-07-03T05:37:20;22.50;66.50
10538;DHT22;5317;49.048;8.468;2022-07-03T05:39:47;22.70;67.20
10538;DHT22;5317;49.048;8.468;2022-07-03T05:42:15;22.60;66.00
10538;DHT22;5317;49.048;8.468;2022-07-03T05:44:42;22.90;65.90
10538;DHT22;5317;49.048;8.468;2022-07-03T05:47:11;22.90;65.30
10538;DHT22;5317;49.048;8.468;2022-07-03T05:49:38;23.10;65.40
10538;DHT22;5317;49.048;8.468;2022-07-03T05:52:06;23.20;65.40
10538;DHT22;5317;49.048;8.468;2022-07-03T05:54:33;23.30;65.20
10538;DHT22;5317;49.048;8.468;2022-07-03T05:57:00;23.30;64.50
10538;DHT22;5317;49.048;8.468;2022-07-03T05:59:28;23.40;64.10
10538;DHT22;5317;49.048;8.468;2022-07-03T06:01:55;23.40;63.70
10538;DHT22;5317;49.048;8.468;2022-07-03T06:04:24;23.50;63.80
10538;DHT22;5317;49.048;8.468;2022-07-03T06:06:51;23.60;63.30
10538;DHT22;5317;49.048;8.468;2022-07-03T06:09:20;23.70;63.20
10538;DHT22;5317;49.048;8.468;2022-07-03T06:11:47;23.80;63.00
10538;DHT22;5317;49.048;8.468;2022-07-03T06:14:14;23.80;62.50
10538;DHT22;5317;49.048;8.468;2022-07-03T06:16:42;23.90;62.10
10538;DHT22;5317;49.048;8.468;2022-07-03T06:19:09;24.10;61.40
10538;DHT22;5317;49.048;8.468;2022-07-03T06:21:37;24.10;61.10
10538;DHT22;5317;49.048;8.468;2022-07-03T06:24:05;24.10;60.80
10538;DHT22;5317;49.048;8.468;2022-07-03T06:26:36;24.20;61.00
10538;DHT22;5317;49.048;8.468;2022-07-03T06:29:03;24.30;61.00
10538;DHT22;5317;49.048;8.468;2022-07-03T06:31:30;24.40;60.00
10538;DHT22;5317;49.048;8.468;2022-07-03T06:33:58;24.40;59.60
10538;DHT22;5317;49.048;8.468;2022-07-03T06:36:25;24.50;59.20
10538;DHT22;5317;49.048;8.468;2022-07-03T06:38:53;24.60;59.00
10538;DHT22;5317;49.048;8.468;2022-07-03T06:41:21;24.70;58.70
10538;DHT22;5317;49.048;8.468;2022-07-03T06:43:48;24.70;59.00
10538;DHT22;5317;49.048;8.468;2022-07-03T06:46:15;24.90;59.00
10538;DHT22;5317;49.048;8.468;2022-07-03T06:48:43;25.00;58.10
10538;DHT22;5317;49.048;8.468;2022-07-03T06:51:10;25.00;57.40
10538;DHT22;5317;49.048;8.468;2022-07-03T06:53:37;25.00;57.30
10538;DHT22;5317;49.048;8.468;2022-07-03T06:56:06;25.10;57.40
10538;DHT22;5317;49.048;8.468;2022-07-03T06:58:33;25.10;57.10
10538;DHT22;5317;49.048;8.468;2022-07-03T07:01:04;25.10;56.70
10538;DHT22;5317;49.048;8.468;2022-07-03T07:03:31;25.10;56.40
10538;DHT22;5317;49.048;8.468;2022-07-03T07:05:58;25.20;56.10
10538;DHT22;5317;49.048;8.468;2022-07-03T07:08:25;25.20;56.10
10538;DHT22;5317;49.048;8.468;2022-07-03T07:10:53;25.30;56.40
10538;DHT22;5317;49.048;8.468;2022-07-03T07:13:22;25.40;56.30
10538;DHT22;5317;49.048;8.468;2022-07-03T07:15:49;25.50;55.70
10538;DHT22;5317;49.048;8.468;2022-07-03T07:18:16;25.60;54.50
10538;DHT22;5317;49.048;8.468;2022-07-03T07:20:43;25.70;53.90
10538;DHT22;5317;49.048;8.468;2022-07-03T07:23:11;25.70;53.30
10538;DHT22;5317;49.048;8.468;2022-07-03T07:25:39;25.80;53.60
10538;DHT22;5317;49.048;8.468;2022-07-03T07:28:07;25.90;54.00
10538;DHT22;5317;49.048;8.468;2022-07-03T07:30:35;26.00;53.00
10538;DHT22;5317;49.048;8.468;2022-07-03T07:33:04;26.00;53.00
10538;DHT22;5317;49.048;8.468;2022-07-03T07:35:31;26.10;52.90
10538;DHT22;5317;49.048;8.468;2022-07-03T07:37:58;26.30;53.20
10538;DHT22;5317;49.048;8.468;2022-07-03T07:40:26;26.40;53.30
10538;DHT22;5317;49.048;8.468;2022-07-03T07:42:53;26.50;53.00
10538;DHT22;5317;49.048;8.468;2022-07-03T07:45:20;26.50;52.70
10538;DHT22;5317;49.048;8.468;2022-07-03T07:47:49;26.60;52.20
10538;DHT22;5317;49.048;8.468;2022-07-03T07:50:16;26.60;52.20
10538;DHT22;5317;49.048;8.468;2022-07-03T07:52:43;26.70;52.00
10538;DHT22;5317;49.048;8.468;2022-07-03T07:55:10;26.80;51.40
10538;DHT22;5317;49.048;8.468;2022-07-03T07:57:39;26.90;51.60
10538;DHT22;5317;49.048;8.468;2022-07-03T08:00:08;26.90;50.90
10538;DHT22;5317;49.048;8.468;2022-07-03T08:02:38;27.00;51.00
10538;DHT22;5317;49.048;8.468;2022-07-03T08:05:24;27.10;50.10
10538;DHT22;5317;49.048;8.468;2022-07-03T08:08:08;27.10;49.80
10538;DHT22;5317;49.048;8.468;2022-07-03T08:10:38;27.10;50.10
10538;DHT22;5317;49.048;8.468;2022-07-03T08:13:07;27.30;50.20
10538;DHT22;5317;49.048;8.468;2022-07-03T08:15:35;27.40;49.50
10538;DHT22;5317;49.048;8.468;2022-07-03T08:18:03;27.40;49.40
10538;DHT22;5317;49.048;8.468;2022-07-03T08:20:33;27.50;49.60
10538;DHT22;5317;49.048;8.468;2022-07-03T08:23:01;27.70;48.90
10538;DHT22;5317;49.048;8.468;2022-07-03T08:25:29;27.70;48.80
10538;DHT22;5317;49.048;8.468;2022-07-03T08:27:57;27.70;48.10
10538;DHT22;5317;49.048;8.468;2022-07-03T08:30:24;27.80;48.20
10538;DHT22;5317;49.048;8.468;2022-07-03T08:32:54;28.00;47.40
10538;DHT22;5317;49.048;8.468;2022-07-03T08:35:23;28.00;47.80
10538;DHT22;5317;49.048;8.468;2022-07-03T08:37:52;28.10;48.30
10538;DHT22;5317;49.048;8.468;2022-07-03T08:40:20;28.20;47.20
10538;DHT22;5317;49.048;8.468;2022-07-03T08:42:51;28.20;46.60
10538;DHT22;5317;49.048;8.468;2022-07-03T08:45:21;28.20;47.20
10538;DHT22;5317;49.048;8.468;2022-07-03T08:47:51;28.20;47.20
10538;DHT22;5317;49.048;8.468;2022-07-03T08:50:21;28.20;47.60
10538;DHT22;5317;49.048;8.468;2022-07-03T08:52:49;28.20;47.70
10538;DHT22;5317;49.048;8.468;2022-07-03T08:55:19;28.20;48.30
10538;DHT22;5317;49.048;8.468;2022-07-03T08:57:47;28.30;47.50
10538;DHT22;5317;49.048;8.468;2022-07-03T09:00:17;28.30;47.30
10538;DHT22;5317;49.048;8.468;2022-07-03T09:02:47;28.40;47.40
10538;DHT22;5317;49.048;8.468;2022-07-03T09:05:16;28.50;46.70
10538;DHT22;5317;49.048;8.468;2022-07-03T09:07:45;28.60;45.20
10538;DHT22;5317;49.048;8.468;2022-07-03T09:10:15;28.60;44.80
10538;DHT22;5317;49.048;8.468;2022-07-03T09:12:46;28.60;44.50
10538;DHT22;5317;49.048;8.468;2022-07-03T09:15:15;28.80;44.60
10538;DHT22;5317;49.048;8.468;2022-07-03T09:17:57;28.80;42.30
10538;DHT22;5317;49.048;8.468;2022-07-03T09:20:30;28.80;42.40
10538;DHT22;5317;49.048;8.468;2022-07-03T09:23:09;28.90;42.50
10538;DHT22;5317;49.048;8.468;2022-07-03T09:25:55;29.10;42.40
10538;DHT22;5317;49.048;8.468;2022-07-03T09:28:41;29.20;42.20
10538;DHT22;5317;49.048;8.468;2022-07-03T09:31:11;29.30;41.60
10538;DHT22;5317;49.048;8.468;2022-07-03T09:33:54;29.40;43.30
10538;DHT22;5317;49.048;8.468;2022-07-03T09:36:23;29.60;42.50
10538;DHT22;5317;49.048;8.468;2022-07-03T09:39:27;29.60;42.50
10538;DHT22;5317;49.048;8.468;2022-07-03T09:42:00;29.60;42.00
10538;DHT22;5317;49.048;8.468;2022-07-03T09:44:30;29.50;42.40
10538;DHT22;5317;49.048;8.468;2022-07-03T09:47:06;29.60;42.90
10538;DHT22;5317;49.048;8.468;2022-07-03T09:49:52;29.70;42.00
10538;DHT22;5317;49.048;8.468;2022-07-03T09:52:34;29.80;42.40
10538;DHT22;5317;49.048;8.468;2022-07-03T09:55:13;30.00;42.40
10538;DHT22;5317;49.048;8.468;2022-07-03T09:57:43;30.10;42.00
10538;DHT22;5317;49.048;8.468;2022-07-03T10:00:15;30.10;41.70
10538;DHT22;5317;49.048;8.468;2022-07-03T10:03:00;30.10;41.50
10538;DHT22;5317;49.048;8.468;2022-07-03T10:05:32;30.10;41.40
10538;DHT22;5317;49.048;8.468;2022-07-03T10:08:02;30.00;41.40
10538;DHT22;5317;49.048;8.468;2022-07-03T10:10:31;30.00;40.50
10538;DHT22;5317;49.048;8.468;2022-07-03T10:12:59;30.00;41.20
10538;DHT22;5317;49.048;8.468;2022-07-03T10:15:29;30.00;40.70
10538;DHT22;5317;49.048;8.468;2022-07-03T10:17:58;30.00;39.80
10538;DHT22;5317;49.048;8.468;2022-07-03T10:20:29;30.10;40.40
10538;DHT22;5317;49.048;8.468;2022-07-03T10:22:58;30.00;39.50
10538;DHT22;5317;49.048;8.468;2022-07-03T10:25:26;30.10;39.70
10538;DHT22;5317;49.048;8.468;2022-07-03T10:27:53;30.10;39.50
10538;DHT22;5317;49.048;8.468;2022-07-03T10:30:23;30.20;38.60
10538;DHT22;5317;49.048;8.468;2022-07-03T10:32:54;30.20;37.60
10538;DHT22;5317;49.048;8.468;2022-07-03T10:35:24;30.20;37.90
10538;DHT22;5317;49.048;8.468;2022-07-03T10:38:29;30.40;39.00
10538;DHT22;5317;49.048;8.468;2022-07-03T10:41:06;30.50;37.90
10538;DHT22;5317;49.048;8.468;2022-07-03T10:43:56;30.50;38.70
10538;DHT22;5317;49.048;8.468;2022-07-03T10:46:42;30.50;38.30
10538;DHT22;5317;49.048;8.468;2022-07-03T10:49:11;30.40;38.40
10538;DHT22;5317;49.048;8.468;2022-07-03T10:51:52;30.60;39.30
10538;DHT22;5317;49.048;8.468;2022-07-03T10:54:22;30.80;40.00
10538;DHT22;5317;49.048;8.468;2022-07-03T11:00:06;30.80;37.00
10538;DHT22;5317;49.048;8.468;2022-07-03T11:02:46;30.70;36.90
10538;DHT22;5317;49.048;8.468;2022-07-03T11:05:26;30.50;36.80
10538;DHT22;5317;49.048;8.468;2022-07-03T11:08:12;30.60;37.40
10538;DHT22;5317;49.048;8.468;2022-07-03T11:10:40;30.80;37.50
10538;DHT22;5317;49.048;8.468;2022-07-03T11:13:27;31.00;39.60
10538;DHT22;5317;49.048;8.468;2022-07-03T11:15:54;31.30;37.30
10538;DHT22;5317;49.048;8.468;2022-07-03T11:18:27;31.40;37.20
10538;DHT22;5317;49.048;8.468;2022-07-03T11:21:21;31.20;37.10
10538;DHT22;5317;49.048;8.468;2022-07-03T11:24:30;31.10;36.40
10538;DHT22;5317;49.048;8.468;2022-07-03T11:27:23;31.00;36.40
10538;DHT22;5317;49.048;8.468;2022-07-03T11:29:57;30.90;36.60
10538;DHT22;5317;49.048;8.468;2022-07-03T11:32:43;31.00;37.40
10538;DHT22;5317;49.048;8.468;2022-07-03T11:35:42;30.90;36.40
10538;DHT22;5317;49.048;8.468;2022-07-03T11:38:17;31.00;37.80
10538;DHT22;5317;49.048;8.468;2022-07-03T11:40:49;31.00;37.90
10538;DHT22;5317;49.048;8.468;2022-07-03T11:43:18;31.10;37.80
10538;DHT22;5317;49.048;8.468;2022-07-03T11:45:47;31.30;39.40
10538;DHT22;5317;49.048;8.468;2022-07-03T11:48:16;31.50;37.30
10538;DHT22;5317;49.048;8.468;2022-07-03T11:50:47;31.70;36.90
10538;DHT22;5317;49.048;8.468;2022-07-03T11:53:18;31.80;37.10
10538;DHT22;5317;49.048;8.468;2022-07-03T11:55:54;31.90;35.70
10538;DHT22;5317;49.048;8.468;2022-07-03T11:58:24;31.80;34.90
10538;DHT22;5317;49.048;8.468;2022-07-03T12:00:53;31.80;36.00
10538;DHT22;5317;49.048;8.468;2022-07-03T12:03:23;31.70;34.90
10538;DHT22;5317;49.048;8.468;2022-07-03T12:05:57;31.70;36.00
10538;DHT22;5317;49.048;8.468;2022-07-03T12:08:28;31.80;36.00
10538;DHT22;5317;49.048;8.468;2022-07-03T12:11:01;31.90;35.50
10538;DHT22;5317;49.048;8.468;2022-07-03T12:13:30;32.10;36.30
10538;DHT22;5317;49.048;8.468;2022-07-03T12:16:07;32.10;34.60
10538;DHT22;5317;49.048;8.468;2022-07-03T12:18:48;32.20;36.70
10538;DHT22;5317;49.048;8.468;2022-07-03T12:21:18;32.20;35.40
10538;DHT22;5317;49.048;8.468;2022-07-03T12:23:48;32.10;35.10
10538;DHT22;5317;49.048;8.468;2022-07-03T12:26:29;32.20;36.60
10538;DHT22;5317;49.048;8.468;2022-07-03T12:28:59;32.30;37.10
10538;DHT22;5317;49.048;8.468;2022-07-03T12:31:28;32.50;37.00
10538;DHT22;5317;49.048;8.468;2022-07-03T12:33:56;32.50;34.90
10538;DHT22;5317;49.048;8.468;2022-07-03T12:36:24;32.30;35.20
10538;DHT22;5317;49.048;8.468;2022-07-03T12:38:55;32.30;35.30
10538;DHT22;5317;49.048;8.468;2022-07-03T12:41:25;32.30;35.50
10538;DHT22;5317;49.048;8.468;2022-07-03T12:43:53;32.30;36.00
10538;DHT22;5317;49.048;8.468;2022-07-03T12:46:23;32.30;35.50
10538;DHT22;5317;49.048;8.468;2022-07-03T12:48:53;32.30;36.60
10538;DHT22;5317;49.048;8.468;2022-07-03T12:51:38;32.40;36.10
10538;DHT22;5317;49.048;8.468;2022-07-03T12:54:11;32.40;36.00
10538;DHT22;5317;49.048;8.468;2022-07-03T12:56:41;32.40;35.80
10538;DHT22;5317;49.048;8.468;2022-07-03T12:59:24;32.50;36.50
10538;DHT22;5317;49.048;8.468;2022-07-03T13:02:02;32.60;35.70
10538;DHT22;5317;49.048;8.468;2022-07-03T13:04:32;32.70;37.50
10538;DHT22;5317;49.048;8.468;2022-07-03T13:07:04;32.70;35.70
10538;DHT22;5317;49.048;8.468;2022-07-03T13:09:36;32.60;35.70
10538;DHT22;5317;49.048;8.468;2022-07-03T13:12:05;32.60;36.90
10538;DHT22;5317;49.048;8.468;2022-07-03T13:14:33;32.70;35.90
10538;DHT22;5317;49.048;8.468;2022-07-03T13:17:00;32.70;35.90
10538;DHT22;5317;49.048;8.468;2022-07-03T13:19:28;32.80;36.30
10538;DHT22;5317;49.048;8.468;2022-07-03T13:21:56;32.90;35.90
10538;DHT22;5317;49.048;8.468;2022-07-03T13:24:24;33.00;35.50
10538;DHT22;5317;49.048;8.468;2022-07-03T13:26:53;33.20;35.40
10538;DHT22;5317;49.048;8.468;2022-07-03T13:29:22;33.20;35.20
10538;DHT22;5317;49.048;8.468;2022-07-03T13:31:50;33.00;34.70
10538;DHT22;5317;49.048;8.468;2022-07-03T13:34:18;32.80;35.20
10538;DHT22;5317;49.048;8.468;2022-07-03T13:36:45;32.90;35.40
10538;DHT22;5317;49.048;8.468;2022-07-03T13:39:14;32.80;35.40
10538;DHT22;5317;49.048;8.468;2022-07-03T13:41:41;32.80;35.40
10538;DHT22;5317;49.048;8.468;2022-07-03T13:44:10;32.90;35.80
10538;DHT22;5317;49.048;8.468;2022-07-03T13:46:37;33.00;34.90
10538;DHT22;5317;49.048;8.468;2022-07-03T13:49:05;33.00;36.50
10538;DHT22;5317;49.048;8.468;2022-07-03T13:51:32;33.20;36.60
10538;DHT22;5317;49.048;8.468;2022-07-03T13:53:59;33.40;35.90
10538;DHT22;5317;49.048;8.468;2022-07-03T13:56:26;33.40;35.20
10538;DHT22;5317;49.048;8.468;2022-07-03T13:58:54;33.50;35.00
10538;DHT22;5317;49.048;8.468;2022-07-03T14:01:23;33.60;34.90
10538;DHT22;5317;49.048;8.468;2022-07-03T14:03:51;33.40;33.50
10538;DHT22;5317;49.048;8.468;2022-07-03T14:06:18;33.50;34.80
10538;DHT22;5317;49.048;8.468;2022-07-03T14:08:45;33.50;34.20
10538;DHT22;5317;49.048;8.468;2022-07-03T14:11:13;33.40;34.10
10538;DHT22;5317;49.048;8.468;2022-07-03T14:13:41;33.30;35.20
10538;DHT22;5317;49.048;8.468;2022-07-03T14:16:08;33.40;35.60
10538;DHT22;5317;49.048;8.468;2022-07-03T14:18:38;33.50;34.50
10538;DHT22;5317;49.048;8.468;2022-07-03T14:21:06;33.50;32.90
10538;DHT22;5317;49.048;8.468;2022-07-03T14:23:33;33.60;34.00
10538;DHT22;5317;49.048;8.468;2022-07-03T14:26:00;33.60;33.20
10538;DHT22;5317;49.048;8.468;2022-07-03T14:28:28;33.60;32.50
10538;DHT22;5317;49.048;8.468;2022-07-03T14:31:12;33.50;33.50
10538;DHT22;5317;49.048;8.468;2022-07-03T14:34:04;33.60;33.10
10538;DHT22;5317;49.048;8.468;2022-07-03T14:36:31;33.60;33.70
10538;DHT22;5317;49.048;8.468;2022-07-03T14:38:59;33.60;33.70
10538;DHT22;5317;49.048;8.468;2022-07-03T14:41:26;33.40;33.30
10538;DHT22;5317;49.048;8.468;2022-07-03T14:43:53;33.40;34.30
10538;DHT22;5317;49.048;8.468;2022-07-03T14:46:20;33.30;33.10
10538;DHT22;5317;49.048;8.468;2022-07-03T14:48:48;33.20;33.90
10538;DHT22;5317;49.048;8.468;2022-07-03T14:51:19;33.30;34.10
10538;DHT22;5317;49.048;8.468;2022-07-03T14:53:46;33.30;35.10
10538;DHT22;5317;49.048;8.468;2022-07-03T14:56:17;33.40;34.00
10538;DHT22;5317;49.048;8.468;2022-07-03T14:58:47;33.30;33.60
10538;DHT22;5317;49.048;8.468;2022-07-03T15:01:17;33.40;34.40
10538;DHT22;5317;49.048;8.468;2022-07-03T15:03:54;33.40;34.70
10538;DHT22;5317;49.048;8.468;2022-07-03T15:06:28;33.50;33.40
10538;DHT22;5317;49.048;8.468;2022-07-03T15:08:59;33.20;33.60
10538;DHT22;5317;49.048;8.468;2022-07-03T15:11:33;33.20;34.20
10538;DHT22;5317;49.048;8.468;2022-07-03T15:14:25;33.20;34.20
10538;DHT22;5317;49.048;8.468;2022-07-03T15:16:55;33.20;34.20
10538;DHT22;5317;49.048;8.468;2022-07-03T15:19:27;33.30;34.50
10538;DHT22;5317;49.048;8.468;2022-07-03T15:21:57;33.40;35.30
10538;DHT22;5317;49.048;8.468;2022-07-03T15:24:25;33.40;34.70
10538;DHT22;5317;49.048;8.468;2022-07-03T15:26:56;33.30;33.80
10538;DHT22;5317;49.048;8.468;2022-07-03T15:29:24;33.30;35.00
10538;DHT22;5317;49.048;8.468;2022-07-03T15:31:51;33.20;34.50
10538;DHT22;5317;49.048;8.468;2022-07-03T15:34:20;33.30;34.80
10538;DHT22;5317;49.048;8.468;2022-07-03T15:36:51;33.10;34.30
10538;DHT22;5317;49.048;8.468;2022-07-03T15:39:37;33.20;35.30
10538;DHT22;5317;49.048;8.468;2022-07-03T15:42:12;33.10;34.50
10538;DHT22;5317;49.048;8.468;2022-07-03T15:44:52;33.00;34.10
10538;DHT22;5317;49.048;8.468;2022-07-03T15:47:36;32.90;34.80
10538;DHT22;5317;49.048;8.468;2022-07-03T15:50:21;33.00;35.90
10538;DHT22;5317;49.048;8.468;2022-07-03T15:52:57;33.00;34.60
10538;DHT22;5317;49.048;8.468;2022-07-03T15:55:33;32.80;34.30
10538;DHT22;5317;49.048;8.468;2022-07-03T15:58:06;32.60;34.90
10538;DHT22;5317;49.048;8.468;2022-07-03T16:00:38;32.60;34.30
10538;DHT22;5317;49.048;8.468;2022-07-03T16:03:19;32.60;34.30
10538;DHT22;5317;49.048;8.468;2022-07-03T16:05:54;32.70;34.50
10538;DHT22;5317;49.048;8.468;2022-07-03T16:08:24;32.80;34.70
10538;DHT22;5317;49.048;8.468;2022-07-03T16:10:55;32.80;35.10
10538;DHT22;5317;49.048;8.468;2022-07-03T16:13:25;32.90;35.30
10538;DHT22;5317;49.048;8.468;2022-07-03T16:15:56;33.00;35.40